sensor_id;sensor_type;location;lat;lon;timestamp;P1;durP1;ratioP1;P2;durP2;ratioP2
59970;SDS011;45825;45.434;9.116;2023-09-07T00:00:22;10.88;;;6.43;;
59970;SDS011;45825;45.434;9.116;2023-09-07T00:02:47;11.40;;;7.13;;
59970;SDS011;45825;45.434;9.116;2023-09-07T00:05:12;12.70;;;7.45;;
59970;SDS011;45825;45.434;9.116;2023-09-07T00:07:38;11.77;;;7.55;;
59970;SDS011;45825;45.434;9.116;2023-09-07T00:10:04;11.25;;;7.03;;
59970;SDS011;45825;45.434;9.116;2023-09-07T00:12:30;13.52;;;7.65;;
59970;SDS011;45825;45.434;9.116;2023-09-07T00:14:55;12.15;;;7.38;;
59970;SDS011;45825;45.434;9.116;2023-09-07T00:17:22;11.15;;;7.07;;
59970;SDS011;45825;45.434;9.116;2023-09-07T00:19:47;10.60;;;7.05;;
59970;SDS011;45825;45.434;9.116;2023-09-07T00:22:16;10.95;;;7.25;;
59970;SDS011;45825;45.434;9.116;2023-09-07T00:24:41;11.63;;;7.40;;
59970;SDS011;45825;45.434;9.116;2023-09-07T00:27:07;13.30;;;7.38;;
59970;SDS011;45825;45.434;9.116;2023-09-07T00:29:33;14.73;;;7.30;;
59970;SDS011;45825;45.434;9.116;2023-09-07T00:31:59;12.15;;;7.80;;
59970;SDS011;45825;45.434;9.116;2023-09-07T00:34:28;14.20;;;7.78;;
59970;SDS011;45825;45.434;9.116;2023-09-07T00:36:53;11.95;;;7.53;;
59970;SDS011;45825;45.434;9.116;2023-09-07T00:39:18;13.25;;;7.82;;
59970;SDS011;45825;45.434;9.116;2023-09-07T00:41:44;11.80;;;7.57;;
59970;SDS011;45825;45.434;9.116;2023-09-07T00:44:09;16.02;;;8.10;;
59970;SDS011;45825;45.434;9.116;2023-09-07T00:46:34;16.33;;;8.00;;
59970;SDS011;45825;45.434;9.116;2023-09-07T00:49:00;12.32;;;8.20;;
59970;SDS011;45825;45.434;9.116;2023-09-07T00:51:25;17.55;;;8.55;;
59970;SDS011;45825;45.434;9.116;2023-09-07T00:53:51;10.68;;;7.43;;
59970;SDS011;45825;45.434;9.116;2023-09-07T00:56:18;18.20;;;7.70;;
59970;SDS011;45825;45.434;9.116;2023-09-07T00:58:44;14.60;;;7.88;;
59970;SDS011;45825;45.434;9.116;2023-09-07T01:01:09;14.30;;;8.43;;
59970;SDS011;45825;45.434;9.116;2023-09-07T01:03:35;16.35;;;8.68;;
59970;SDS011;45825;45.434;9.116;2023-09-07T01:06:03;12.63;;;7.75;;
59970;SDS011;45825;45.434;9.116;2023-09-07T01:08:47;15.05;;;8.10;;
59970;SDS011;45825;45.434;9.116;2023-09-07T01:11:19;14.50;;;7.75;;
59970;SDS011;45825;45.434;9.116;2023-09-07T01:13:48;12.05;;;7.55;;
59970;SDS011;45825;45.434;9.116;2023-09-07T01:16:14;13.63;;;8.25;;
59970;SDS011;45825;45.434;9.116;2023-09-07T01:18:39;11.75;;;7.85;;
59970;SDS011;45825;45.434;9.116;2023-09-07T01:21:05;15.30;;;7.55;;
59970;SDS011;45825;45.434;9.116;2023-09-07T01:23:35;10.15;;;7.63;;
59970;SDS011;45825;45.434;9.116;2023-09-07T01:26:02;10.82;;;7.25;;
59970;SDS011;45825;45.434;9.116;2023-09-07T01:28:29;16.92;;;8.75;;
59970;SDS011;45825;45.434;9.116;2023-09-07T01:30:54;13.63;;;8.35;;
59970;SDS011;45825;45.434;9.116;2023-09-07T01:33:20;15.48;;;10.27;;
59970;SDS011;45825;45.434;9.116;2023-09-07T01:35:45;16.70;;;9.57;;
59970;SDS011;45825;45.434;9.116;2023-09-07T01:38:11;14.40;;;9.40;;
59970;SDS011;45825;45.434;9.116;2023-09-07T01:40:36;14.30;;;9.82;;
59970;SDS011;45825;45.434;9.116;2023-09-07T01:43:02;15.38;;;9.68;;
59970;SDS011;45825;45.434;9.116;2023-09-07T01:45:27;14.25;;;10.00;;
59970;SDS011;45825;45.434;9.116;2023-09-07T01:47:52;16.10;;;9.48;;
59970;SDS011;45825;45.434;9.116;2023-09-07T01:50:18;16.50;;;9.23;;
59970;SDS011;45825;45.434;9.116;2023-09-07T01:52:45;16.20;;;10.15;;
59970;SDS011;45825;45.434;9.116;2023-09-07T01:55:12;12.20;;;9.32;;
59970;SDS011;45825;45.434;9.116;2023-09-07T01:57:37;14.10;;;9.57;;
59970;SDS011;45825;45.434;9.116;2023-09-07T02:00:03;19.75;;;9.90;;
59970;SDS011;45825;45.434;9.116;2023-09-07T02:02:30;14.65;;;9.13;;
59970;SDS011;45825;45.434;9.116;2023-09-07T02:04:55;13.80;;;9.48;;
59970;SDS011;45825;45.434;9.116;2023-09-07T02:07:21;16.67;;;9.13;;
59970;SDS011;45825;45.434;9.116;2023-09-07T02:09:46;17.40;;;9.43;;
59970;SDS011;45825;45.434;9.116;2023-09-07T02:12:11;12.75;;;9.25;;
59970;SDS011;45825;45.434;9.116;2023-09-07T02:14:37;13.20;;;8.88;;
59970;SDS011;45825;45.434;9.116;2023-09-07T02:17:02;14.32;;;9.55;;
59970;SDS011;45825;45.434;9.116;2023-09-07T02:19:28;15.02;;;9.25;;
59970;SDS011;45825;45.434;9.116;2023-09-07T02:21:53;13.98;;;9.43;;
59970;SDS011;45825;45.434;9.116;2023-09-07T02:24:19;14.50;;;9.07;;
59970;SDS011;45825;45.434;9.116;2023-09-07T02:26:44;15.70;;;9.15;;
59970;SDS011;45825;45.434;9.116;2023-09-07T02:29:13;14.20;;;9.18;;
59970;SDS011;45825;45.434;9.116;2023-09-07T02:31:41;14.13;;;9.65;;
59970;SDS011;45825;45.434;9.116;2023-09-07T02:34:07;11.90;;;9.02;;
59970;SDS011;45825;45.434;9.116;2023-09-07T02:36:33;13.93;;;9.20;;
59970;SDS011;45825;45.434;9.116;2023-09-07T02:38:59;11.50;;;8.77;;
59970;SDS011;45825;45.434;9.116;2023-09-07T02:41:24;13.18;;;8.68;;
59970;SDS011;45825;45.434;9.116;2023-09-07T02:43:50;12.50;;;8.82;;
59970;SDS011;45825;45.434;9.116;2023-09-07T02:46:16;15.30;;;8.93;;
59970;SDS011;45825;45.434;9.116;2023-09-07T02:48:41;12.10;;;8.40;;
59970;SDS011;45825;45.434;9.116;2023-09-07T02:51:07;12.57;;;8.68;;
59970;SDS011;45825;45.434;9.116;2023-09-07T02:53:32;13.48;;;8.85;;
59970;SDS011;45825;45.434;9.116;2023-09-07T02:55:57;13.38;;;9.20;;
59970;SDS011;45825;45.434;9.116;2023-09-07T02:58:22;19.35;;;9.43;;
59970;SDS011;45825;45.434;9.116;2023-09-07T03:00:48;15.45;;;9.02;;
59970;SDS011;45825;45.434;9.116;2023-09-07T03:03:14;15.55;;;9.27;;
59970;SDS011;45825;45.434;9.116;2023-09-07T03:05:41;14.20;;;9.38;;
59970;SDS011;45825;45.434;9.116;2023-09-07T03:08:07;16.73;;;9.23;;
59970;SDS011;45825;45.434;9.116;2023-09-07T03:10:33;13.75;;;9.18;;
59970;SDS011;45825;45.434;9.116;2023-09-07T03:12:59;12.70;;;8.60;;
59970;SDS011;45825;45.434;9.116;2023-09-07T03:15:25;14.60;;;8.60;;
59970;SDS011;45825;45.434;9.116;2023-09-07T03:17:50;14.77;;;9.00;;
59970;SDS011;45825;45.434;9.116;2023-09-07T03:20:15;15.65;;;9.38;;
59970;SDS011;45825;45.434;9.116;2023-09-07T03:22:41;14.68;;;8.43;;
59970;SDS011;45825;45.434;9.116;2023-09-07T03:25:07;13.88;;;9.65;;
59970;SDS011;45825;45.434;9.116;2023-09-07T03:27:34;13.80;;;8.90;;
59970;SDS011;45825;45.434;9.116;2023-09-07T03:29:59;14.63;;;9.35;;
59970;SDS011;45825;45.434;9.116;2023-09-07T03:32:24;11.35;;;8.40;;
59970;SDS011;45825;45.434;9.116;2023-09-07T03:34:51;15.27;;;9.43;;
59970;SDS011;45825;45.434;9.116;2023-09-07T03:37:17;14.18;;;9.45;;
59970;SDS011;45825;45.434;9.116;2023-09-07T03:39:42;13.82;;;9.68;;
59970;SDS011;45825;45.434;9.116;2023-09-07T03:42:07;15.15;;;9.25;;
59970;SDS011;45825;45.434;9.116;2023-09-07T03:44:33;12.98;;;9.25;;
59970;SDS011;45825;45.434;9.116;2023-09-07T03:46:58;15.52;;;9.20;;
59970;SDS011;45825;45.434;9.116;2023-09-07T03:49:23;14.38;;;9.25;;
59970;SDS011;45825;45.434;9.116;2023-09-07T03:51:48;15.25;;;9.27;;
59970;SDS011;45825;45.434;9.116;2023-09-07T03:54:14;17.38;;;9.80;;
59970;SDS011;45825;45.434;9.116;2023-09-07T03:56:39;14.50;;;9.23;;
59970;SDS011;45825;45.434;9.116;2023-09-07T03:59:04;15.57;;;9.10;;
59970;SDS011;45825;45.434;9.116;2023-09-07T04:01:29;12.63;;;9.00;;
59970;SDS011;45825;45.434;9.116;2023-09-07T04:03:55;13.48;;;9.00;;
59970;SDS011;45825;45.434;9.116;2023-09-07T04:06:20;11.75;;;8.38;;
59970;SDS011;45825;45.434;9.116;2023-09-07T04:08:45;14.05;;;8.60;;
59970;SDS011;45825;45.434;9.116;2023-09-07T04:11:12;13.18;;;8.70;;
59970;SDS011;45825;45.434;9.116;2023-09-07T04:13:37;13.55;;;8.30;;
59970;SDS011;45825;45.434;9.116;2023-09-07T04:16:02;13.18;;;8.20;;
59970;SDS011;45825;45.434;9.116;2023-09-07T04:18:28;15.98;;;8.52;;
59970;SDS011;45825;45.434;9.116;2023-09-07T04:20:56;13.07;;;8.80;;
59970;SDS011;45825;45.434;9.116;2023-09-07T04:23:29;11.57;;;8.40;;
59970;SDS011;45825;45.434;9.116;2023-09-07T04:26:03;14.15;;;8.52;;
59970;SDS011;45825;45.434;9.116;2023-09-07T04:28:31;15.35;;;8.88;;
59970;SDS011;45825;45.434;9.116;2023-09-07T04:30:57;15.35;;;8.73;;
59970;SDS011;45825;45.434;9.116;2023-09-07T04:33:22;12.48;;;8.65;;
59970;SDS011;45825;45.434;9.116;2023-09-07T04:35:47;17.17;;;8.73;;
59970;SDS011;45825;45.434;9.116;2023-09-07T04:38:13;13.05;;;8.43;;
59970;SDS011;45825;45.434;9.116;2023-09-07T04:40:38;14.75;;;8.40;;
59970;SDS011;45825;45.434;9.116;2023-09-07T04:43:03;11.82;;;8.10;;
59970;SDS011;45825;45.434;9.116;2023-09-07T04:45:28;12.52;;;8.75;;
59970;SDS011;45825;45.434;9.116;2023-09-07T04:47:54;13.40;;;8.60;;
59970;SDS011;45825;45.434;9.116;2023-09-07T04:50:19;13.40;;;8.73;;
59970;SDS011;45825;45.434;9.116;2023-09-07T04:52:44;14.00;;;8.55;;
59970;SDS011;45825;45.434;9.116;2023-09-07T04:55:09;13.75;;;8.80;;
59970;SDS011;45825;45.434;9.116;2023-09-07T04:57:35;11.95;;;8.20;;
59970;SDS011;45825;45.434;9.116;2023-09-07T05:00:01;13.70;;;8.63;;
59970;SDS011;45825;45.434;9.116;2023-09-07T05:02:28;12.32;;;8.40;;
59970;SDS011;45825;45.434;9.116;2023-09-07T05:04:53;11.10;;;8.75;;
59970;SDS011;45825;45.434;9.116;2023-09-07T05:07:19;17.25;;;9.27;;
59970;SDS011;45825;45.434;9.116;2023-09-07T05:09:44;12.43;;;8.90;;
59970;SDS011;45825;45.434;9.116;2023-09-07T05:12:09;12.57;;;9.40;;
59970;SDS011;45825;45.434;9.116;2023-09-07T05:14:35;14.85;;;9.50;;
59970;SDS011;45825;45.434;9.116;2023-09-07T05:17:01;15.40;;;9.70;;
59970;SDS011;45825;45.434;9.116;2023-09-07T05:19:26;16.80;;;10.30;;
59970;SDS011;45825;45.434;9.116;2023-09-07T05:21:53;18.10;;;10.43;;
59970;SDS011;45825;45.434;9.116;2023-09-07T05:24:18;17.55;;;10.90;;
59970;SDS011;45825;45.434;9.116;2023-09-07T05:26:44;15.45;;;9.77;;
59970;SDS011;45825;45.434;9.116;2023-09-07T05:29:09;18.92;;;10.52;;
59970;SDS011;45825;45.434;9.116;2023-09-07T05:31:36;14.82;;;9.70;;
59970;SDS011;45825;45.434;9.116;2023-09-07T05:34:04;13.32;;;10.88;;
59970;SDS011;45825;45.434;9.116;2023-09-07T05:36:29;14.13;;;10.07;;
59970;SDS011;45825;45.434;9.116;2023-09-07T05:38:56;13.70;;;9.95;;
59970;SDS011;45825;45.434;9.116;2023-09-07T05:41:21;14.65;;;9.55;;
59970;SDS011;45825;45.434;9.116;2023-09-07T05:43:47;15.43;;;10.25;;
59970;SDS011;45825;45.434;9.116;2023-09-07T05:46:14;19.00;;;10.10;;
59970;SDS011;45825;45.434;9.116;2023-09-07T05:48:39;13.93;;;9.95;;
59970;SDS011;45825;45.434;9.116;2023-09-07T05:51:05;12.80;;;10.25;;
59970;SDS011;45825;45.434;9.116;2023-09-07T05:53:30;15.05;;;10.35;;
59970;SDS011;45825;45.434;9.116;2023-09-07T05:55:55;15.50;;;10.68;;
59970;SDS011;45825;45.434;9.116;2023-09-07T05:58:21;14.70;;;10.43;;
59970;SDS011;45825;45.434;9.116;2023-09-07T06:00:46;14.43;;;10.13;;
59970;SDS011;45825;45.434;9.116;2023-09-07T06:03:11;15.32;;;11.25;;
59970;SDS011;45825;45.434;9.116;2023-09-07T06:05:37;18.50;;;10.68;;
59970;SDS011;45825;45.434;9.116;2023-09-07T06:08:04;16.75;;;10.82;;
59970;SDS011;45825;45.434;9.116;2023-09-07T06:10:31;17.50;;;10.73;;
59970;SDS011;45825;45.434;9.116;2023-09-07T06:12:57;16.05;;;10.70;;
59970;SDS011;45825;45.434;9.116;2023-09-07T06:15:22;18.40;;;11.90;;
59970;SDS011;45825;45.434;9.116;2023-09-07T06:17:48;14.57;;;10.93;;
59970;SDS011;45825;45.434;9.116;2023-09-07T06:20:14;15.00;;;11.50;;
59970;SDS011;45825;45.434;9.116;2023-09-07T06:22:40;16.20;;;12.13;;
59970;SDS011;45825;45.434;9.116;2023-09-07T06:25:06;19.35;;;11.68;;
59970;SDS011;45825;45.434;9.116;2023-09-07T06:27:32;20.08;;;11.48;;
59970;SDS011;45825;45.434;9.116;2023-09-07T06:29:58;19.50;;;11.63;;
59970;SDS011;45825;45.434;9.116;2023-09-07T06:32:23;16.77;;;11.23;;
59970;SDS011;45825;45.434;9.116;2023-09-07T06:34:48;18.27;;;11.60;;
59970;SDS011;45825;45.434;9.116;2023-09-07T06:37:14;17.85;;;14.38;;
59970;SDS011;45825;45.434;9.116;2023-09-07T06:39:39;23.08;;;20.65;;
59970;SDS011;45825;45.434;9.116;2023-09-07T06:42:07;20.52;;;11.63;;
59970;SDS011;45825;45.434;9.116;2023-09-07T06:44:33;18.38;;;11.85;;
59970;SDS011;45825;45.434;9.116;2023-09-07T06:46:59;15.10;;;10.85;;
59970;SDS011;45825;45.434;9.116;2023-09-07T06:49:24;20.23;;;14.45;;
59970;SDS011;45825;45.434;9.116;2023-09-07T06:51:50;26.10;;;21.65;;
59970;SDS011;45825;45.434;9.116;2023-09-07T06:54:15;16.63;;;12.60;;
59970;SDS011;45825;45.434;9.116;2023-09-07T06:56:40;17.25;;;11.30;;
59970;SDS011;45825;45.434;9.116;2023-09-07T06:59:06;18.02;;;11.18;;
59970;SDS011;45825;45.434;9.116;2023-09-07T07:01:31;31.05;;;24.15;;
59970;SDS011;45825;45.434;9.116;2023-09-07T07:03:56;30.27;;;24.38;;
59970;SDS011;45825;45.434;9.116;2023-09-07T07:06:22;23.63;;;19.50;;
59970;SDS011;45825;45.434;9.116;2023-09-07T07:08:48;20.45;;;13.55;;
59970;SDS011;45825;45.434;9.116;2023-09-07T07:11:13;17.98;;;11.93;;
59970;SDS011;45825;45.434;9.116;2023-09-07T07:13:38;18.33;;;11.60;;
59970;SDS011;45825;45.434;9.116;2023-09-07T07:16:04;19.58;;;11.32;;
59970;SDS011;45825;45.434;9.116;2023-09-07T07:18:29;35.35;;;10.65;;
59970;SDS011;45825;45.434;9.116;2023-09-07T07:20:55;36.00;;;11.80;;
59970;SDS011;45825;45.434;9.116;2023-09-07T07:23:20;18.42;;;9.43;;
59970;SDS011;45825;45.434;9.116;2023-09-07T07:25:45;16.88;;;10.40;;
59970;SDS011;45825;45.434;9.116;2023-09-07T07:28:11;17.60;;;9.63;;
59970;SDS011;45825;45.434;9.116;2023-09-07T07:30:37;15.40;;;10.27;;
59970;SDS011;45825;45.434;9.116;2023-09-07T07:33:05;14.57;;;9.63;;
59970;SDS011;45825;45.434;9.116;2023-09-07T07:35:31;14.35;;;9.27;;
59970;SDS011;45825;45.434;9.116;2023-09-07T07:37:56;15.75;;;8.90;;
59970;SDS011;45825;45.434;9.116;2023-09-07T07:40:22;15.10;;;8.15;;
59970;SDS011;45825;45.434;9.116;2023-09-07T07:42:47;17.20;;;7.65;;
59970;SDS011;45825;45.434;9.116;2023-09-07T07:45:13;13.05;;;7.40;;
59970;SDS011;45825;45.434;9.116;2023-09-07T07:47:40;12.98;;;6.50;;
59970;SDS011;45825;45.434;9.116;2023-09-07T07:50:06;15.63;;;6.63;;
59970;SDS011;45825;45.434;9.116;2023-09-07T07:52:32;15.38;;;7.32;;
59970;SDS011;45825;45.434;9.116;2023-09-07T07:54:57;11.88;;;6.18;;
59970;SDS011;45825;45.434;9.116;2023-09-07T07:57:22;14.52;;;7.00;;
59970;SDS011;45825;45.434;9.116;2023-09-07T07:59:48;11.40;;;6.18;;
59970;SDS011;45825;45.434;9.116;2023-09-07T08:02:13;11.77;;;5.78;;
59970;SDS011;45825;45.434;9.116;2023-09-07T08:04:38;9.25;;;6.00;;
59970;SDS011;45825;45.434;9.116;2023-09-07T08:07:04;11.45;;;6.28;;
59970;SDS011;45825;45.434;9.116;2023-09-07T08:09:30;10.68;;;6.43;;
59970;SDS011;45825;45.434;9.116;2023-09-07T08:11:56;8.43;;;5.15;;
59970;SDS011;45825;45.434;9.116;2023-09-07T08:14:22;10.30;;;5.68;;
59970;SDS011;45825;45.434;9.116;2023-09-07T08:16:49;12.57;;;6.38;;
59970;SDS011;45825;45.434;9.116;2023-09-07T08:19:14;11.80;;;6.22;;
59970;SDS011;45825;45.434;9.116;2023-09-07T08:21:39;9.50;;;5.60;;
59970;SDS011;45825;45.434;9.116;2023-09-07T08:24:07;11.50;;;6.18;;
59970;SDS011;45825;45.434;9.116;2023-09-07T08:26:35;8.95;;;5.93;;
59970;SDS011;45825;45.434;9.116;2023-09-07T08:29:01;12.25;;;6.22;;
59970;SDS011;45825;45.434;9.116;2023-09-07T08:31:30;10.38;;;6.32;;
59970;SDS011;45825;45.434;9.116;2023-09-07T08:33:58;9.57;;;5.10;;
59970;SDS011;45825;45.434;9.116;2023-09-07T08:36:24;9.23;;;5.85;;
59970;SDS011;45825;45.434;9.116;2023-09-07T08:38:53;9.48;;;5.90;;
59970;SDS011;45825;45.434;9.116;2023-09-07T08:41:18;10.05;;;7.10;;
59970;SDS011;45825;45.434;9.116;2023-09-07T08:43:45;9.18;;;5.82;;
59970;SDS011;45825;45.434;9.116;2023-09-07T08:46:15;9.55;;;5.75;;
59970;SDS011;45825;45.434;9.116;2023-09-07T08:48:45;10.65;;;5.75;;
59970;SDS011;45825;45.434;9.116;2023-09-07T08:51:11;8.68;;;6.07;;
59970;SDS011;45825;45.434;9.116;2023-09-07T08:53:38;13.13;;;6.78;;
59970;SDS011;45825;45.434;9.116;2023-09-07T08:56:04;13.88;;;6.55;;
59970;SDS011;45825;45.434;9.116;2023-09-07T08:58:35;11.48;;;6.93;;
59970;SDS011;45825;45.434;9.116;2023-09-07T09:01:01;10.63;;;6.63;;
59970;SDS011;45825;45.434;9.116;2023-09-07T09:03:26;10.30;;;6.95;;
59970;SDS011;45825;45.434;9.116;2023-09-07T09:05:53;10.80;;;6.00;;
59970;SDS011;45825;45.434;9.116;2023-09-07T09:08:21;10.07;;;6.10;;
59970;SDS011;45825;45.434;9.116;2023-09-07T09:10:49;10.85;;;6.32;;
59970;SDS011;45825;45.434;9.116;2023-09-07T09:13:31;10.32;;;5.68;;
59970;SDS011;45825;45.434;9.116;2023-09-07T09:15:58;11.90;;;5.97;;
59970;SDS011;45825;45.434;9.116;2023-09-07T09:18:26;9.80;;;5.93;;
59970;SDS011;45825;45.434;9.116;2023-09-07T09:20:52;9.18;;;5.90;;
59970;SDS011;45825;45.434;9.116;2023-09-07T09:23:18;13.57;;;5.85;;
59970;SDS011;45825;45.434;9.116;2023-09-07T09:25:43;13.07;;;6.63;;
59970;SDS011;45825;45.434;9.116;2023-09-07T09:28:11;13.05;;;6.57;;
59970;SDS011;45825;45.434;9.116;2023-09-07T09:30:37;12.82;;;8.35;;
59970;SDS011;45825;45.434;9.116;2023-09-07T09:33:02;13.10;;;7.57;;
59970;SDS011;45825;45.434;9.116;2023-09-07T09:35:30;12.95;;;6.78;;
59970;SDS011;45825;45.434;9.116;2023-09-07T09:37:56;10.63;;;7.55;;
59970;SDS011;45825;45.434;9.116;2023-09-07T09:40:32;12.93;;;6.43;;
59970;SDS011;45825;45.434;9.116;2023-09-07T09:42:59;10.10;;;7.00;;
59970;SDS011;45825;45.434;9.116;2023-09-07T09:45:28;10.32;;;6.05;;
59970;SDS011;45825;45.434;9.116;2023-09-07T09:47:54;10.35;;;7.45;;
59970;SDS011;45825;45.434;9.116;2023-09-07T09:50:25;13.90;;;8.57;;
59970;SDS011;45825;45.434;9.116;2023-09-07T09:52:52;13.02;;;7.90;;
59970;SDS011;45825;45.434;9.116;2023-09-07T09:55:18;13.88;;;7.95;;
59970;SDS011;45825;45.434;9.116;2023-09-07T09:57:44;10.18;;;8.05;;
59970;SDS011;45825;45.434;9.116;2023-09-07T10:00:10;11.52;;;8.07;;
59970;SDS011;45825;45.434;9.116;2023-09-07T10:02:42;13.10;;;7.75;;
59970;SDS011;45825;45.434;9.116;2023-09-07T10:05:10;11.40;;;8.80;;
59970;SDS011;45825;45.434;9.116;2023-09-07T10:07:42;13.90;;;8.98;;
59970;SDS011;45825;45.434;9.116;2023-09-07T10:10:14;12.45;;;8.40;;
59970;SDS011;45825;45.434;9.116;2023-09-07T10:12:42;9.57;;;5.97;;
59970;SDS011;45825;45.434;9.116;2023-09-07T10:15:19;12.15;;;6.30;;
59970;SDS011;45825;45.434;9.116;2023-09-07T10:23:16;10.50;;;5.20;;
59970;SDS011;45825;45.434;9.116;2023-09-07T10:25:42;10.05;;;5.10;;
59970;SDS011;45825;45.434;9.116;2023-09-07T10:28:20;11.40;;;5.90;;
59970;SDS011;45825;45.434;9.116;2023-09-07T10:30:57;13.13;;;7.47;;
59970;SDS011;45825;45.434;9.116;2023-09-07T10:33:26;10.55;;;7.30;;
59970;SDS011;45825;45.434;9.116;2023-09-07T10:35:51;11.98;;;5.80;;
59970;SDS011;45825;45.434;9.116;2023-09-07T10:38:17;10.43;;;4.90;;
59970;SDS011;45825;45.434;9.116;2023-09-07T10:40:43;9.27;;;4.85;;
59970;SDS011;45825;45.434;9.116;2023-09-07T10:43:10;9.75;;;5.35;;
59970;SDS011;45825;45.434;9.116;2023-09-07T10:45:35;8.35;;;5.05;;
59970;SDS011;45825;45.434;9.116;2023-09-07T10:48:01;9.27;;;4.70;;
59970;SDS011;45825;45.434;9.116;2023-09-07T10:50:28;7.03;;;3.95;;
59970;SDS011;45825;45.434;9.116;2023-09-07T10:52:54;9.45;;;6.28;;
59970;SDS011;45825;45.434;9.116;2023-09-07T10:55:19;8.23;;;4.50;;
59970;SDS011;45825;45.434;9.116;2023-09-07T10:57:45;11.38;;;5.60;;
59970;SDS011;45825;45.434;9.116;2023-09-07T11:00:12;9.25;;;6.38;;
59970;SDS011;45825;45.434;9.116;2023-09-07T11:02:38;7.18;;;4.63;;
59970;SDS011;45825;45.434;9.116;2023-09-07T11:05:05;7.65;;;4.15;;
59970;SDS011;45825;45.434;9.116;2023-09-07T11:07:31;6.68;;;3.88;;
59970;SDS011;45825;45.434;9.116;2023-09-07T11:09:58;8.45;;;4.80;;
59970;SDS011;45825;45.434;9.116;2023-09-07T11:12:23;7.75;;;4.82;;
59970;SDS011;45825;45.434;9.116;2023-09-07T11:14:51;9.50;;;4.53;;
59970;SDS011;45825;45.434;9.116;2023-09-07T11:17:18;6.18;;;4.38;;
59970;SDS011;45825;45.434;9.116;2023-09-07T11:19:43;7.25;;;4.32;;
59970;SDS011;45825;45.434;9.116;2023-09-07T11:22:09;8.82;;;3.75;;
59970;SDS011;45825;45.434;9.116;2023-09-07T11:24:35;5.25;;;3.25;;
59970;SDS011;45825;45.434;9.116;2023-09-07T11:27:01;6.43;;;3.75;;
59970;SDS011;45825;45.434;9.116;2023-09-07T11:29:27;7.18;;;3.40;;
59970;SDS011;45825;45.434;9.116;2023-09-07T11:32:05;7.18;;;3.67;;
59970;SDS011;45825;45.434;9.116;2023-09-07T11:34:34;10.13;;;5.32;;
59970;SDS011;45825;45.434;9.116;2023-09-07T11:37:02;9.38;;;4.68;;
59970;SDS011;45825;45.434;9.116;2023-09-07T11:39:28;7.78;;;3.67;;
59970;SDS011;45825;45.434;9.116;2023-09-07T11:41:54;6.10;;;3.38;;
59970;SDS011;45825;45.434;9.116;2023-09-07T11:44:20;6.13;;;3.00;;
59970;SDS011;45825;45.434;9.116;2023-09-07T11:46:46;7.18;;;3.70;;
59970;SDS011;45825;45.434;9.116;2023-09-07T11:49:12;9.63;;;4.35;;
59970;SDS011;45825;45.434;9.116;2023-09-07T11:51:38;6.53;;;4.00;;
59970;SDS011;45825;45.434;9.116;2023-09-07T11:54:04;8.68;;;4.50;;
59970;SDS011;45825;45.434;9.116;2023-09-07T11:56:29;5.93;;;3.50;;
59970;SDS011;45825;45.434;9.116;2023-09-07T11:58:55;7.00;;;4.03;;
59970;SDS011;45825;45.434;9.116;2023-09-07T12:01:20;7.03;;;3.45;;
59970;SDS011;45825;45.434;9.116;2023-09-07T12:03:46;10.90;;;5.53;;
59970;SDS011;45825;45.434;9.116;2023-09-07T12:06:12;8.98;;;5.00;;
59970;SDS011;45825;45.434;9.116;2023-09-07T12:08:41;6.43;;;3.63;;
59970;SDS011;45825;45.434;9.116;2023-09-07T12:11:08;6.22;;;3.47;;
59970;SDS011;45825;45.434;9.116;2023-09-07T12:13:33;6.10;;;3.08;;
59970;SDS011;45825;45.434;9.116;2023-09-07T12:15:58;6.47;;;3.42;;
59970;SDS011;45825;45.434;9.116;2023-09-07T12:18:24;9.38;;;3.70;;
59970;SDS011;45825;45.434;9.116;2023-09-07T12:20:49;8.02;;;3.58;;
59970;SDS011;45825;45.434;9.116;2023-09-07T12:23:14;8.43;;;4.70;;
59970;SDS011;45825;45.434;9.116;2023-09-07T12:25:40;6.90;;;3.70;;
59970;SDS011;45825;45.434;9.116;2023-09-07T12:28:05;7.72;;;3.38;;
59970;SDS011;45825;45.434;9.116;2023-09-07T12:30:30;7.27;;;3.00;;
59970;SDS011;45825;45.434;9.116;2023-09-07T12:32:56;7.40;;;3.30;;
59970;SDS011;45825;45.434;9.116;2023-09-07T12:35:21;9.13;;;4.53;;
59970;SDS011;45825;45.434;9.116;2023-09-07T12:37:46;6.88;;;3.28;;
59970;SDS011;45825;45.434;9.116;2023-09-07T12:40:12;7.18;;;3.92;;
59970;SDS011;45825;45.434;9.116;2023-09-07T12:42:41;6.10;;;3.58;;
59970;SDS011;45825;45.434;9.116;2023-09-07T12:45:10;7.10;;;4.20;;
59970;SDS011;45825;45.434;9.116;2023-09-07T12:47:37;6.15;;;3.75;;
59970;SDS011;45825;45.434;9.116;2023-09-07T12:50:03;6.38;;;3.58;;
59970;SDS011;45825;45.434;9.116;2023-09-07T12:52:32;7.68;;;4.20;;
59970;SDS011;45825;45.434;9.116;2023-09-07T12:55:02;12.23;;;5.20;;
59970;SDS011;45825;45.434;9.116;2023-09-07T12:57:28;8.20;;;3.30;;
59970;SDS011;45825;45.434;9.116;2023-09-07T12:59:54;9.73;;;3.97;;
59970;SDS011;45825;45.434;9.116;2023-09-07T13:02:19;5.82;;;3.78;;
59970;SDS011;45825;45.434;9.116;2023-09-07T13:04:45;8.50;;;4.68;;
59970;SDS011;45825;45.434;9.116;2023-09-07T13:07:11;10.07;;;4.82;;
59970;SDS011;45825;45.434;9.116;2023-09-07T13:09:36;6.40;;;3.00;;
59970;SDS011;45825;45.434;9.116;2023-09-07T13:12:01;7.18;;;3.85;;
59970;SDS011;45825;45.434;9.116;2023-09-07T13:14:27;7.60;;;3.83;;
59970;SDS011;45825;45.434;9.116;2023-09-07T13:16:52;8.43;;;4.18;;
59970;SDS011;45825;45.434;9.116;2023-09-07T13:19:20;7.32;;;3.03;;
59970;SDS011;45825;45.434;9.116;2023-09-07T13:21:45;6.15;;;2.90;;
59970;SDS011;45825;45.434;9.116;2023-09-07T13:24:10;8.15;;;3.00;;
59970;SDS011;45825;45.434;9.116;2023-09-07T13:26:36;6.97;;;3.20;;
59970;SDS011;45825;45.434;9.116;2023-09-07T13:29:02;8.27;;;3.60;;
59970;SDS011;45825;45.434;9.116;2023-09-07T13:31:27;8.50;;;3.60;;
59970;SDS011;45825;45.434;9.116;2023-09-07T13:33:52;5.90;;;3.08;;
59970;SDS011;45825;45.434;9.116;2023-09-07T13:36:18;5.55;;;2.92;;
59970;SDS011;45825;45.434;9.116;2023-09-07T13:38:43;7.95;;;3.17;;
59970;SDS011;45825;45.434;9.116;2023-09-07T13:41:08;11.95;;;3.33;;
59970;SDS011;45825;45.434;9.116;2023-09-07T13:43:34;7.28;;;3.65;;
59970;SDS011;45825;45.434;9.116;2023-09-07T13:45:59;9.55;;;3.53;;
59970;SDS011;45825;45.434;9.116;2023-09-07T13:48:25;7.75;;;3.50;;
59970;SDS011;45825;45.434;9.116;2023-09-07T13:50:50;8.65;;;3.45;;
59970;SDS011;45825;45.434;9.116;2023-09-07T13:53:15;5.75;;;3.00;;
59970;SDS011;45825;45.434;9.116;2023-09-07T13:55:41;8.68;;;3.47;;
59970;SDS011;45825;45.434;9.116;2023-09-07T13:58:08;8.68;;;3.35;;
59970;SDS011;45825;45.434;9.116;2023-09-07T14:00:34;5.82;;;3.25;;
59970;SDS011;45825;45.434;9.116;2023-09-07T14:02:59;5.32;;;3.25;;
59970;SDS011;45825;45.434;9.116;2023-09-07T14:05:24;6.22;;;3.50;;
59970;SDS011;45825;45.434;9.116;2023-09-07T14:07:50;10.93;;;3.67;;
59970;SDS011;45825;45.434;9.116;2023-09-07T14:10:15;6.28;;;3.25;;
59970;SDS011;45825;45.434;9.116;2023-09-07T14:12:40;6.03;;;3.22;;
59970;SDS011;45825;45.434;9.116;2023-09-07T14:15:08;11.80;;;4.20;;
59970;SDS011;45825;45.434;9.116;2023-09-07T14:17:33;7.47;;;4.20;;
59970;SDS011;45825;45.434;9.116;2023-09-07T14:19:59;8.53;;;3.43;;
59970;SDS011;45825;45.434;9.116;2023-09-07T14:22:24;8.00;;;4.20;;
59970;SDS011;45825;45.434;9.116;2023-09-07T14:24:49;10.50;;;5.00;;
59970;SDS011;45825;45.434;9.116;2023-09-07T14:27:14;8.57;;;3.85;;
59970;SDS011;45825;45.434;9.116;2023-09-07T14:29:40;6.80;;;3.30;;
59970;SDS011;45825;45.434;9.116;2023-09-07T14:32:05;10.63;;;4.60;;
59970;SDS011;45825;45.434;9.116;2023-09-07T14:34:30;10.05;;;5.97;;